sensor_id;sensor_type;location;lat;lon;timestamp;P1;durP1;ratioP1;P2;durP2;ratioP2
42972;SDS011;28610;51.214;6.962;2023-05-07T00:01:51;6.43;;;4.10;;
42972;SDS011;28610;51.214;6.962;2023-05-07T00:04:37;6.72;;;3.92;;
42972;SDS011;28610;51.214;6.962;2023-05-07T00:07:22;6.47;;;4.00;;
42972;SDS011;28610;51.214;6.962;2023-05-07T00:10:10;5.93;;;4.10;;
42972;SDS011;28610;51.214;6.962;2023-05-07T00:12:56;7.40;;;4.10;;
42972;SDS011;28610;51.214;6.962;2023-05-07T00:15:41;7.50;;;4.22;;
42972;SDS011;28610;51.214;6.962;2023-05-07T00:18:27;8.30;;;4.43;;
42972;SDS011;28610;51.214;6.962;2023-05-07T00:21:12;6.80;;;4.00;;
42972;SDS011;28610;51.214;6.962;2023-05-07T00:23:58;8.97;;;4.50;;
42972;SDS011;28610;51.214;6.962;2023-05-07T00:26:45;10.87;;;4.50;;
42972;SDS011;28610;51.214;6.962;2023-05-07T00:29:30;6.70;;;4.13;;
42972;SDS011;28610;51.214;6.962;2023-05-07T00:32:16;6.78;;;4.20;;
42972;SDS011;28610;51.214;6.962;2023-05-07T00:35:01;6.97;;;3.97;;
42972;SDS011;28610;51.214;6.962;2023-05-07T00:37:47;8.40;;;3.70;;
42972;SDS011;28610;51.214;6.962;2023-05-07T00:40:33;6.47;;;3.60;;
42972;SDS011;28610;51.214;6.962;2023-05-07T00:43:20;9.05;;;3.92;;
42972;SDS011;28610;51.214;6.962;2023-05-07T00:46:06;7.13;;;3.67;;
42972;SDS011;28610;51.214;6.962;2023-05-07T00:48:51;8.15;;;3.58;;
42972;SDS011;28610;51.214;6.962;2023-05-07T00:51:38;6.47;;;3.40;;
42972;SDS011;28610;51.214;6.962;2023-05-07T00:54:23;7.13;;;3.53;;
42972;SDS011;28610;51.214;6.962;2023-05-07T00:57:09;6.03;;;3.43;;
42972;SDS011;28610;51.214;6.962;2023-05-07T00:59:57;6.20;;;3.70;;
42972;SDS011;28610;51.214;6.962;2023-05-07T01:02:43;6.97;;;3.70;;
42972;SDS011;28610;51.214;6.962;2023-05-07T01:05:29;4.90;;;3.37;;
42972;SDS011;28610;51.214;6.962;2023-05-07T01:08:15;8.70;;;3.60;;
42972;SDS011;28610;51.214;6.962;2023-05-07T01:11:01;4.80;;;3.20;;
42972;SDS011;28610;51.214;6.962;2023-05-07T01:13:47;4.77;;;3.30;;
42972;SDS011;28610;51.214;6.962;2023-05-07T01:16:36;5.57;;;2.75;;
42972;SDS011;28610;51.214;6.962;2023-05-07T01:19:21;3.13;;;2.60;;
42972;SDS011;28610;51.214;6.962;2023-05-07T01:22:07;6.37;;;3.20;;
42972;SDS011;28610;51.214;6.962;2023-05-07T01:24:55;6.27;;;4.20;;
42972;SDS011;28610;51.214;6.962;2023-05-07T01:27:40;6.77;;;4.30;;
42972;SDS011;28610;51.214;6.962;2023-05-07T01:30:26;7.43;;;4.60;;
42972;SDS011;28610;51.214;6.962;2023-05-07T01:33:13;8.97;;;3.90;;
42972;SDS011;28610;51.214;6.962;2023-05-07T01:36:00;5.83;;;3.80;;
42972;SDS011;28610;51.214;6.962;2023-05-07T01:38:47;7.17;;;3.87;;
42972;SDS011;28610;51.214;6.962;2023-05-07T01:41:34;7.77;;;4.13;;
42972;SDS011;28610;51.214;6.962;2023-05-07T01:44:20;8.30;;;3.97;;
42972;SDS011;28610;51.214;6.962;2023-05-07T01:47:06;9.10;;;3.83;;
42972;SDS011;28610;51.214;6.962;2023-05-07T01:49:52;7.57;;;3.43;;
42972;SDS011;28610;51.214;6.962;2023-05-07T01:52:38;5.17;;;3.23;;
42972;SDS011;28610;51.214;6.962;2023-05-07T01:55:24;7.33;;;3.60;;
42972;SDS011;28610;51.214;6.962;2023-05-07T01:58:10;7.20;;;3.50;;
42972;SDS011;28610;51.214;6.962;2023-05-07T02:00:56;5.03;;;3.70;;
42972;SDS011;28610;51.214;6.962;2023-05-07T02:03:42;5.93;;;3.70;;
42972;SDS011;28610;51.214;6.962;2023-05-07T02:06:27;5.23;;;3.40;;
42972;SDS011;28610;51.214;6.962;2023-05-07T02:09:15;7.03;;;3.57;;
42972;SDS011;28610;51.214;6.962;2023-05-07T02:12:00;7.27;;;3.70;;
42972;SDS011;28610;51.214;6.962;2023-05-07T02:14:47;6.37;;;3.70;;
42972;SDS011;28610;51.214;6.962;2023-05-07T02:17:33;6.67;;;3.50;;
42972;SDS011;28610;51.214;6.962;2023-05-07T02:20:20;5.53;;;3.77;;
42972;SDS011;28610;51.214;6.962;2023-05-07T02:23:05;5.67;;;3.33;;
42972;SDS011;28610;51.214;6.962;2023-05-07T02:25:51;5.30;;;3.30;;
42972;SDS011;28610;51.214;6.962;2023-05-07T02:28:37;7.67;;;3.43;;
42972;SDS011;28610;51.214;6.962;2023-05-07T02:31:23;6.73;;;3.40;;
42972;SDS011;28610;51.214;6.962;2023-05-07T02:34:09;5.37;;;3.10;;
42972;SDS011;28610;51.214;6.962;2023-05-07T02:36:54;8.80;;;3.27;;
42972;SDS011;28610;51.214;6.962;2023-05-07T02:39:40;7.23;;;3.30;;
42972;SDS011;28610;51.214;6.962;2023-05-07T02:42:25;4.90;;;3.00;;
42972;SDS011;28610;51.214;6.962;2023-05-07T02:45:11;5.90;;;3.43;;
42972;SDS011;28610;51.214;6.962;2023-05-07T02:47:59;8.57;;;3.07;;
42972;SDS011;28610;51.214;6.962;2023-05-07T02:50:45;4.57;;;3.07;;
42972;SDS011;28610;51.214;6.962;2023-05-07T02:53:30;6.00;;;3.13;;
42972;SDS011;28610;51.214;6.962;2023-05-07T02:56:16;5.10;;;2.97;;
42972;SDS011;28610;51.214;6.962;2023-05-07T02:59:02;5.33;;;3.20;;
42972;SDS011;28610;51.214;6.962;2023-05-07T03:01:48;4.13;;;3.27;;
42972;SDS011;28610;51.214;6.962;2023-05-07T03:04:35;7.63;;;3.30;;
42972;SDS011;28610;51.214;6.962;2023-05-07T03:07:20;6.90;;;3.17;;
42972;SDS011;28610;51.214;6.962;2023-05-07T03:10:06;5.47;;;3.10;;
42972;SDS011;28610;51.214;6.962;2023-05-07T03:12:52;4.83;;;3.10;;
42972;SDS011;28610;51.214;6.962;2023-05-07T03:15:37;4.13;;;2.97;;
42972;SDS011;28610;51.214;6.962;2023-05-07T03:18:23;4.73;;;3.00;;
42972;SDS011;28610;51.214;6.962;2023-05-07T03:21:10;6.07;;;3.20;;
42972;SDS011;28610;51.214;6.962;2023-05-07T03:23:56;5.43;;;3.20;;
42972;SDS011;28610;51.214;6.962;2023-05-07T03:26:41;5.93;;;3.43;;
42972;SDS011;28610;51.214;6.962;2023-05-07T03:29:27;5.17;;;3.33;;
42972;SDS011;28610;51.214;6.962;2023-05-07T03:32:12;6.03;;;3.30;;
42972;SDS011;28610;51.214;6.962;2023-05-07T03:34:58;6.00;;;3.10;;
42972;SDS011;28610;51.214;6.962;2023-05-07T03:37:45;5.67;;;3.20;;
42972;SDS011;28610;51.214;6.962;2023-05-07T03:40:30;5.43;;;3.10;;
42972;SDS011;28610;51.214;6.962;2023-05-07T03:43:16;5.07;;;3.27;;
42972;SDS011;28610;51.214;6.962;2023-05-07T03:46:02;3.70;;;2.90;;
42972;SDS011;28610;51.214;6.962;2023-05-07T03:48:47;3.67;;;2.87;;
42972;SDS011;28610;51.214;6.962;2023-05-07T03:51:33;4.53;;;3.23;;
42972;SDS011;28610;51.214;6.962;2023-05-07T03:54:20;4.97;;;3.07;;
42972;SDS011;28610;51.214;6.962;2023-05-07T03:57:06;5.07;;;2.97;;
42972;SDS011;28610;51.214;6.962;2023-05-07T03:59:52;6.23;;;3.03;;
42972;SDS011;28610;51.214;6.962;2023-05-07T04:02:38;4.90;;;3.00;;
42972;SDS011;28610;51.214;6.962;2023-05-07T04:05:24;5.67;;;3.40;;
42972;SDS011;28610;51.214;6.962;2023-05-07T04:08:09;6.97;;;3.50;;
42972;SDS011;28610;51.214;6.962;2023-05-07T04:10:56;4.20;;;3.40;;
42972;SDS011;28610;51.214;6.962;2023-05-07T04:13:42;5.70;;;3.60;;
42972;SDS011;28610;51.214;6.962;2023-05-07T04:16:27;5.00;;;3.50;;
42972;SDS011;28610;51.214;6.962;2023-05-07T04:19:13;6.63;;;3.30;;
42972;SDS011;28610;51.214;6.962;2023-05-07T04:21:59;4.17;;;2.90;;
42972;SDS011;28610;51.214;6.962;2023-05-07T04:24:44;7.73;;;3.70;;
42972;SDS011;28610;51.214;6.962;2023-05-07T04:27:31;5.10;;;3.30;;
42972;SDS011;28610;51.214;6.962;2023-05-07T04:30:17;5.80;;;3.20;;
42972;SDS011;28610;51.214;6.962;2023-05-07T04:33:02;6.83;;;3.50;;
42972;SDS011;28610;51.214;6.962;2023-05-07T04:35:48;5.70;;;3.13;;
42972;SDS011;28610;51.214;6.962;2023-05-07T04:38:33;4.37;;;3.37;;
42972;SDS011;28610;51.214;6.962;2023-05-07T04:41:19;4.97;;;3.17;;
42972;SDS011;28610;51.214;6.962;2023-05-07T04:44:06;6.53;;;3.80;;
42972;SDS011;28610;51.214;6.962;2023-05-07T04:46:52;5.33;;;3.23;;
42972;SDS011;28610;51.214;6.962;2023-05-07T04:49:38;6.90;;;3.30;;
42972;SDS011;28610;51.214;6.962;2023-05-07T04:52:23;6.37;;;3.47;;
42972;SDS011;28610;51.214;6.962;2023-05-07T04:55:10;4.17;;;3.33;;
42972;SDS011;28610;51.214;6.962;2023-05-07T04:57:56;4.87;;;3.30;;
42972;SDS011;28610;51.214;6.962;2023-05-07T05:00:43;5.43;;;3.13;;
42972;SDS011;28610;51.214;6.962;2023-05-07T05:03:28;5.80;;;3.40;;
42972;SDS011;28610;51.214;6.962;2023-05-07T05:06:14;8.13;;;3.23;;
42972;SDS011;28610;51.214;6.962;2023-05-07T05:09:00;6.87;;;3.10;;
42972;SDS011;28610;51.214;6.962;2023-05-07T05:11:46;7.37;;;3.40;;
42972;SDS011;28610;51.214;6.962;2023-05-07T05:14:32;4.30;;;3.10;;
42972;SDS011;28610;51.214;6.962;2023-05-07T05:17:19;5.93;;;3.63;;
42972;SDS011;28610;51.214;6.962;2023-05-07T05:20:04;5.67;;;3.30;;
42972;SDS011;28610;51.214;6.962;2023-05-07T05:22:50;3.93;;;2.90;;
42972;SDS011;28610;51.214;6.962;2023-05-07T05:25:36;7.57;;;3.47;;
42972;SDS011;28610;51.214;6.962;2023-05-07T05:28:22;5.57;;;3.30;;
42972;SDS011;28610;51.214;6.962;2023-05-07T05:31:08;4.67;;;3.17;;
42972;SDS011;28610;51.214;6.962;2023-05-07T05:33:55;5.45;;;3.10;;
42972;SDS011;28610;51.214;6.962;2023-05-07T05:36:41;5.73;;;3.00;;
42972;SDS011;28610;51.214;6.962;2023-05-07T05:39:26;5.07;;;3.17;;
42972;SDS011;28610;51.214;6.962;2023-05-07T05:42:12;6.22;;;3.50;;
42972;SDS011;28610;51.214;6.962;2023-05-07T05:44:57;4.45;;;3.00;;
42972;SDS011;28610;51.214;6.962;2023-05-07T05:47:43;7.30;;;3.17;;
42972;SDS011;28610;51.214;6.962;2023-05-07T05:50:30;5.95;;;3.28;;
42972;SDS011;28610;51.214;6.962;2023-05-07T05:53:15;5.37;;;3.30;;
42972;SDS011;28610;51.214;6.962;2023-05-07T05:56:01;4.82;;;3.10;;
42972;SDS011;28610;51.214;6.962;2023-05-07T05:58:46;5.55;;;3.10;;
42972;SDS011;28610;51.214;6.962;2023-05-07T06:01:32;6.72;;;2.95;;
42972;SDS011;28610;51.214;6.962;2023-05-07T06:04:17;4.65;;;2.92;;
42972;SDS011;28610;51.214;6.962;2023-05-07T06:07:04;5.18;;;3.15;;
42972;SDS011;28610;51.214;6.962;2023-05-07T06:09:50;6.45;;;3.38;;
42972;SDS011;28610;51.214;6.962;2023-05-07T06:12:35;7.38;;;3.22;;
42972;SDS011;28610;51.214;6.962;2023-05-07T06:15:21;5.05;;;3.00;;
42972;SDS011;28610;51.214;6.962;2023-05-07T06:18:06;4.75;;;3.00;;
42972;SDS011;28610;51.214;6.962;2023-05-07T06:20:52;6.30;;;3.20;;
42972;SDS011;28610;51.214;6.962;2023-05-07T06:23:39;7.80;;;3.20;;
42972;SDS011;28610;51.214;6.962;2023-05-07T06:26:25;5.78;;;3.50;;
42972;SDS011;28610;51.214;6.962;2023-05-07T06:29:11;6.07;;;3.40;;
42972;SDS011;28610;51.214;6.962;2023-05-07T06:31:56;7.90;;;3.13;;
42972;SDS011;28610;51.214;6.962;2023-05-07T06:34:51;6.38;;;3.35;;
42972;SDS011;28610;51.214;6.962;2023-05-07T06:37:36;7.45;;;3.53;;
42972;SDS011;28610;51.214;6.962;2023-05-07T06:40:24;4.63;;;2.90;;
42972;SDS011;28610;51.214;6.962;2023-05-07T06:43:10;7.88;;;3.58;;
42972;SDS011;28610;51.214;6.962;2023-05-07T06:45:55;7.55;;;3.50;;
42972;SDS011;28610;51.214;6.962;2023-05-07T06:48:41;5.47;;;3.45;;
42972;SDS011;28610;51.214;6.962;2023-05-07T06:51:26;4.85;;;3.20;;
42972;SDS011;28610;51.214;6.962;2023-05-07T06:54:12;4.85;;;3.17;;
42972;SDS011;28610;51.214;6.962;2023-05-07T06:56:59;6.30;;;3.10;;
42972;SDS011;28610;51.214;6.962;2023-05-07T06:59:45;5.72;;;3.13;;
42972;SDS011;28610;51.214;6.962;2023-05-07T07:02:31;4.95;;;3.25;;
42972;SDS011;28610;51.214;6.962;2023-05-07T07:05:17;5.40;;;3.30;;
42972;SDS011;28610;51.214;6.962;2023-05-07T07:08:03;4.68;;;2.95;;
42972;SDS011;28610;51.214;6.962;2023-05-07T07:10:48;7.28;;;3.20;;
42972;SDS011;28610;51.214;6.962;2023-05-07T07:13:35;6.25;;;3.15;;
42972;SDS011;28610;51.214;6.962;2023-05-07T07:16:21;6.68;;;3.17;;
42972;SDS011;28610;51.214;6.962;2023-05-07T07:19:07;6.55;;;3.00;;
42972;SDS011;28610;51.214;6.962;2023-05-07T07:21:53;4.70;;;2.70;;
42972;SDS011;28610;51.214;6.962;2023-05-07T07:24:39;6.65;;;2.90;;
42972;SDS011;28610;51.214;6.962;2023-05-07T07:27:24;7.32;;;2.97;;
42972;SDS011;28610;51.214;6.962;2023-05-07T07:30:11;5.30;;;2.72;;
42972;SDS011;28610;51.214;6.962;2023-05-07T07:32:57;5.10;;;2.53;;
42972;SDS011;28610;51.214;6.962;2023-05-07T07:35:45;4.30;;;2.50;;
42972;SDS011;28610;51.214;6.962;2023-05-07T07:38:31;8.23;;;2.78;;
42972;SDS011;28610;51.214;6.962;2023-05-07T07:41:17;3.70;;;2.70;;
42972;SDS011;28610;51.214;6.962;2023-05-07T07:44:03;3.33;;;2.50;;
42972;SDS011;28610;51.214;6.962;2023-05-07T07:46:52;3.78;;;2.50;;
42972;SDS011;28610;51.214;6.962;2023-05-07T07:49:37;5.30;;;2.33;;
42972;SDS011;28610;51.214;6.962;2023-05-07T07:52:24;6.72;;;2.45;;
42972;SDS011;28610;51.214;6.962;2023-05-07T07:55:09;3.78;;;2.10;;
42972;SDS011;28610;51.214;6.962;2023-05-07T07:57:55;5.30;;;2.10;;
42972;SDS011;28610;51.214;6.962;2023-05-07T08:00:41;5.10;;;2.40;;
42972;SDS011;28610;51.214;6.962;2023-05-07T08:03:27;4.95;;;2.47;;
42972;SDS011;28610;51.214;6.962;2023-05-07T08:06:15;5.88;;;2.42;;
42972;SDS011;28610;51.214;6.962;2023-05-07T08:09:01;6.82;;;2.30;;
42972;SDS011;28610;51.214;6.962;2023-05-07T08:11:47;4.53;;;2.47;;
42972;SDS011;28610;51.214;6.962;2023-05-07T08:14:32;4.28;;;2.20;;
42972;SDS011;28610;51.214;6.962;2023-05-07T08:17:18;5.75;;;2.30;;
42972;SDS011;28610;51.214;6.962;2023-05-07T08:20:07;8.68;;;2.40;;
42972;SDS011;28610;51.214;6.962;2023-05-07T08:22:53;5.70;;;2.15;;
42972;SDS011;28610;51.214;6.962;2023-05-07T08:25:39;4.72;;;2.10;;
42972;SDS011;28610;51.214;6.962;2023-05-07T08:28:26;6.50;;;2.10;;
42972;SDS011;28610;51.214;6.962;2023-05-07T08:31:11;5.82;;;2.35;;
42972;SDS011;28610;51.214;6.962;2023-05-07T08:33:57;4.35;;;2.00;;
42972;SDS011;28610;51.214;6.962;2023-05-07T08:36:45;5.10;;;2.40;;
42972;SDS011;28610;51.214;6.962;2023-05-07T08:39:32;4.00;;;2.22;;
42972;SDS011;28610;51.214;6.962;2023-05-07T08:42:17;3.10;;;2.22;;
42972;SDS011;28610;51.214;6.962;2023-05-07T08:45:04;3.80;;;2.20;;
42972;SDS011;28610;51.214;6.962;2023-05-07T08:47:50;3.17;;;2.10;;
42972;SDS011;28610;51.214;6.962;2023-05-07T08:50:37;4.15;;;2.15;;
42972;SDS011;28610;51.214;6.962;2023-05-07T08:53:24;4.40;;;2.05;;
42972;SDS011;28610;51.214;6.962;2023-05-07T08:56:10;4.15;;;1.90;;
42972;SDS011;28610;51.214;6.962;2023-05-07T08:58:56;5.15;;;2.20;;
42972;SDS011;28610;51.214;6.962;2023-05-07T09:01:42;4.13;;;2.10;;
42972;SDS011;28610;51.214;6.962;2023-05-07T09:04:28;4.22;;;2.10;;
42972;SDS011;28610;51.214;6.962;2023-05-07T09:07:15;3.20;;;2.10;;
42972;SDS011;28610;51.214;6.962;2023-05-07T09:10:03;3.47;;;2.08;;
42972;SDS011;28610;51.214;6.962;2023-05-07T09:12:49;5.18;;;2.00;;
42972;SDS011;28610;51.214;6.962;2023-05-07T09:15:34;4.35;;;2.25;;
42972;SDS011;28610;51.214;6.962;2023-05-07T09:18:20;6.32;;;2.17;;
42972;SDS011;28610;51.214;6.962;2023-05-07T09:21:06;5.40;;;2.30;;
42972;SDS011;28610;51.214;6.962;2023-05-07T09:23:54;3.80;;;2.20;;
42972;SDS011;28610;51.214;6.962;2023-05-07T09:26:42;3.90;;;2.25;;
42972;SDS011;28610;51.214;6.962;2023-05-07T09:29:27;3.67;;;2.17;;
42972;SDS011;28610;51.214;6.962;2023-05-07T09:32:16;4.43;;;2.00;;
42972;SDS011;28610;51.214;6.962;2023-05-07T09:35:02;3.40;;;1.70;;
42972;SDS011;28610;51.214;6.962;2023-05-07T09:37:48;5.78;;;2.10;;
42972;SDS011;28610;51.214;6.962;2023-05-07T09:40:34;4.78;;;2.17;;
42972;SDS011;28610;51.214;6.962;2023-05-07T09:43:21;5.00;;;2.25;;
42972;SDS011;28610;51.214;6.962;2023-05-07T09:46:07;4.45;;;2.17;;
42972;SDS011;28610;51.214;6.962;2023-05-07T09:48:54;3.55;;;2.00;;
42972;SDS011;28610;51.214;6.962;2023-05-07T09:51:43;5.45;;;1.77;;
42972;SDS011;28610;51.214;6.962;2023-05-07T09:54:31;3.78;;;2.10;;
42972;SDS011;28610;51.214;6.962;2023-05-07T09:57:17;5.97;;;2.20;;
42972;SDS011;28610;51.214;6.962;2023-05-07T10:00:06;5.50;;;2.22;;
42972;SDS011;28610;51.214;6.962;2023-05-07T10:02:53;4.22;;;2.10;;
42972;SDS011;28610;51.214;6.962;2023-05-07T10:05:41;5.75;;;2.05;;
42972;SDS011;28610;51.214;6.962;2023-05-07T10:08:28;4.50;;;2.00;;
42972;SDS011;28610;51.214;6.962;2023-05-07T10:11:14;3.88;;;1.73;;
42972;SDS011;28610;51.214;6.962;2023-05-07T10:14:00;4.35;;;2.00;;
42972;SDS011;28610;51.214;6.962;2023-05-07T10:16:48;3.47;;;1.95;;
42972;SDS011;28610;51.214;6.962;2023-05-07T10:19:33;4.05;;;2.00;;
42972;SDS011;28610;51.214;6.962;2023-05-07T10:22:20;3.33;;;1.70;;
42972;SDS011;28610;51.214;6.962;2023-05-07T10:25:09;2.97;;;1.70;;
42972;SDS011;28610;51.214;6.962;2023-05-07T10:27:59;3.72;;;1.73;;
42972;SDS011;28610;51.214;6.962;2023-05-07T10:30:49;2.90;;;1.80;;
42972;SDS011;28610;51.214;6.962;2023-05-07T10:33:41;6.57;;;1.80;;
42972;SDS011;28610;51.214;6.962;2023-05-07T10:36:27;6.82;;;1.67;;
42972;SDS011;28610;51.214;6.962;2023-05-07T10:39:13;4.13;;;1.83;;
42972;SDS011;28610;51.214;6.962;2023-05-07T10:42:07;4.13;;;1.88;;
42972;SDS011;28610;51.214;6.962;2023-05-07T10:44:52;3.30;;;1.60;;
42972;SDS011;28610;51.214;6.962;2023-05-07T10:47:53;4.38;;;1.80;;
42972;SDS011;28610;51.214;6.962;2023-05-07T10:50:51;2.70;;;1.70;;
42972;SDS011;28610;51.214;6.962;2023-05-07T10:56:59;4.15;;;1.88;;
42972;SDS011;28610;51.214;6.962;2023-05-07T11:00:40;2.35;;;1.70;;
42972;SDS011;28610;51.214;6.962;2023-05-07T11:03:23;3.63;;;1.70;;
42972;SDS011;28610;51.214;6.962;2023-05-07T11:06:11;4.72;;;1.75;;
42972;SDS011;28610;51.214;6.962;2023-05-07T11:08:57;3.97;;;1.95;;
42972;SDS011;28610;51.214;6.962;2023-05-07T11:11:44;3.15;;;1.90;;
42972;SDS011;28610;51.214;6.962;2023-05-07T11:14:42;3.78;;;2.00;;
42972;SDS011;28610;51.214;6.962;2023-05-07T11:17:28;2.75;;;1.92;;
42972;SDS011;28610;51.214;6.962;2023-05-07T11:20:15;2.55;;;1.70;;
42972;SDS011;28610;51.214;6.962;2023-05-07T11:23:03;3.63;;;1.73;;
42972;SDS011;28610;51.214;6.962;2023-05-07T11:25:48;4.95;;;2.15;;
42972;SDS011;28610;51.214;6.962;2023-05-07T11:28:36;3.15;;;1.90;;
42972;SDS011;28610;51.214;6.962;2023-05-07T11:31:22;4.47;;;1.90;;
42972;SDS011;28610;51.214;6.962;2023-05-07T11:34:09;4.75;;;2.17;;
42972;SDS011;28610;51.214;6.962;2023-05-07T11:36:56;2.35;;;1.83;;
42972;SDS011;28610;51.214;6.962;2023-05-07T11:39:45;4.55;;;2.30;;
42972;SDS011;28610;51.214;6.962;2023-05-07T11:42:31;4.28;;;1.95;;
42972;SDS011;28610;51.214;6.962;2023-05-07T11:45:22;4.05;;;2.10;;
42972;SDS011;28610;51.214;6.962;2023-05-07T11:48:08;5.90;;;2.30;;
42972;SDS011;28610;51.214;6.962;2023-05-07T11:50:59;5.95;;;2.13;;
42972;SDS011;28610;51.214;6.962;2023-05-07T11:53:45;4.90;;;1.98;;
42972;SDS011;28610;51.214;6.962;2023-05-07T11:56:33;6.05;;;2.10;;
42972;SDS011;28610;51.214;6.962;2023-05-07T11:59:19;3.63;;;2.10;;
42972;SDS011;28610;51.214;6.962;2023-05-07T12:02:05;6.32;;;2.00;;
42972;SDS011;28610;51.214;6.962;2023-05-07T12:04:51;13.60;;;2.15;;
42972;SDS011;28610;51.214;6.962;2023-05-07T12:07:36;4.68;;;2.10;;
42972;SDS011;28610;51.214;6.962;2023-05-07T12:10:22;3.97;;;2.03;;
42972;SDS011;28610;51.214;6.962;2023-05-07T12:13:15;3.45;;;1.90;;
42972;SDS011;28610;51.214;6.962;2023-05-07T12:16:00;4.43;;;2.10;;
42972;SDS011;28610;51.214;6.962;2023-05-07T12:18:48;4.05;;;2.20;;
42972;SDS011;28610;51.214;6.962;2023-05-07T12:21:33;5.80;;;2.30;;
42972;SDS011;28610;51.214;6.962;2023-05-07T12:24:19;4.55;;;2.15;;
42972;SDS011;28610;51.214;6.962;2023-05-07T12:27:05;4.05;;;2.33;;
42972;SDS011;28610;51.214;6.962;2023-05-07T12:29:53;7.30;;;2.50;;
42972;SDS011;28610;51.214;6.962;2023-05-07T12:32:38;3.47;;;2.10;;
42972;SDS011;28610;51.214;6.962;2023-05-07T12:35:27;3.75;;;2.40;;
42972;SDS011;28610;51.214;6.962;2023-05-07T12:38:13;3.47;;;2.30;;
42972;SDS011;28610;51.214;6.962;2023-05-07T12:41:00;8.90;;;2.78;;
42972;SDS011;28610;51.214;6.962;2023-05-07T12:43:46;4.97;;;2.67;;
42972;SDS011;28610;51.214;6.962;2023-05-07T12:46:32;5.78;;;2.55;;
42972;SDS011;28610;51.214;6.962;2023-05-07T12:49:23;4.72;;;2.80;;
42972;SDS011;28610;51.214;6.962;2023-05-07T12:52:09;5.57;;;2.80;;
42972;SDS011;28610;51.214;6.962;2023-05-07T12:54:56;5.50;;;2.63;;
42972;SDS011;28610;51.214;6.962;2023-05-07T12:57:42;4.43;;;2.58;;
42972;SDS011;28610;51.214;6.962;2023-05-07T13:00:35;4.05;;;2.75;;
42972;SDS011;28610;51.214;6.962;2023-05-07T13:03:22;6.40;;;3.10;;
42972;SDS011;28610;51.214;6.962;2023-05-07T13:06:09;5.43;;;2.75;;
42972;SDS011;28610;51.214;6.962;2023-05-07T13:08:56;4.65;;;2.50;;
42972;SDS011;28610;51.214;6.962;2023-05-07T13:11:41;3.85;;;2.70;;
42972;SDS011;28610;51.214;6.962;2023-05-07T13:14:27;6.90;;;2.90;;
42972;SDS011;28610;51.214;6.962;2023-05-07T13:17:13;6.38;;;2.90;;
42972;SDS011;28610;51.214;6.962;2023-05-07T13:20:00;4.72;;;2.70;;
42972;SDS011;28610;51.214;6.962;2023-05-07T13:22:46;7.88;;;2.40;;
42972;SDS011;28610;51.214;6.962;2023-05-07T13:25:32;5.72;;;2.80;;
42972;SDS011;28610;51.214;6.962;2023-05-07T13:28:17;7.63;;;3.10;;
42972;SDS011;28610;51.214;6.962;2023-05-07T13:31:03;5.72;;;3.10;;
42972;SDS011;28610;51.214;6.962;2023-05-07T13:33:50;6.22;;;3.10;;
42972;SDS011;28610;51.214;6.962;2023-05-07T13:36:37;6.32;;;3.50;;
42972;SDS011;28610;51.214;6.962;2023-05-07T13:39:25;7.68;;;4.15;;
42972;SDS011;28610;51.214;6.962;2023-05-07T13:42:10;5.68;;;3.90;;
42972;SDS011;28610;51.214;6.962;2023-05-07T13:44:56;6.97;;;4.20;;
42972;SDS011;28610;51.214;6.962;2023-05-07T13:47:43;8.48;;;4.38;;
42972;SDS011;28610;51.214;6.962;2023-05-07T13:50:29;10.65;;;5.25;;
42972;SDS011;28610;51.214;6.962;2023-05-07T13:53:16;13.75;;;5.80;;
42972;SDS011;28610;51.214;6.962;2023-05-07T13:56:01;12.27;;;6.20;;
42972;SDS011;28610;51.214;6.962;2023-05-07T13:58:48;10.68;;;5.88;;
42972;SDS011;28610;51.214;6.962;2023-05-07T14:01:34;8.85;;;6.00;;
42972;SDS011;28610;51.214;6.962;2023-05-07T14:04:19;10.48;;;6.18;;
42972;SDS011;28610;51.214;6.962;2023-05-07T14:07:05;9.27;;;6.05;;
42972;SDS011;28610;51.214;6.962;2023-05-07T14:09:52;10.50;;;6.30;;
42972;SDS011;28610;51.214;6.962;2023-05-07T14:12:38;16.00;;;7.85;;
42972;SDS011;28610;51.214;6.962;2023-05-07T14:15:23;13.32;;;6.60;;
42972;SDS011;28610;51.214;6.962;2023-05-07T14:18:09;13.35;;;6.32;;
42972;SDS011;28610;51.214;6.962;2023-05-07T14:20:55;11.45;;;6.38;;
42972;SDS011;28610;51.214;6.962;2023-05-07T14:23:40;10.82;;;6.93;;
42972;SDS011;28610;51.214;6.962;2023-05-07T14:26:27;12.23;;;6.68;;
42972;SDS011;28610;51.214;6.962;2023-05-07T14:29:13;19.00;;;7.93;;
42972;SDS011;28610;51.214;6.962;2023-05-07T14:32:02;13.75;;;8.13;;
42972;SDS011;28610;51.214;6.962;2023-05-07T14:34:48;11.23;;;7.90;;
42972;SDS011;28610;51.214;6.962;2023-05-07T14:37:34;14.88;;;7.70;;
42972;SDS011;28610;51.214;6.962;2023-05-07T14:40:20;18.52;;;9.65;;
42972;SDS011;28610;51.214;6.962;2023-05-07T14:43:07;16.77;;;9.40;;
42972;SDS011;28610;51.214;6.962;2023-05-07T14:45:52;14.27;;;8.40;;
42972;SDS011;28610;51.214;6.962;2023-05-07T14:48:38;17.92;;;9.55;;
42972;SDS011;28610;51.214;6.962;2023-05-07T14:51:23;22.70;;;12.18;;
42972;SDS011;28610;51.214;6.962;2023-05-07T14:54:09;12.18;;;8.20;;
42972;SDS011;28610;51.214;6.962;2023-05-07T14:56:55;15.30;;;7.80;;
42972;SDS011;28610;51.214;6.962;2023-05-07T14:59:43;13.32;;;7.30;;
42972;SDS011;28610;51.214;6.962;2023-05-07T15:02:28;10.48;;;6.95;;
42972;SDS011;28610;51.214;6.962;2023-05-07T15:05:14;13.35;;;7.95;;
42972;SDS011;28610;51.214;6.962;2023-05-07T15:08:01;12.70;;;8.13;;
42972;SDS011;28610;51.214;6.962;2023-05-07T15:10:47;14.65;;;8.27;;
42972;SDS011;28610;51.214;6.962;2023-05-07T15:13:32;16.55;;;10.00;;
42972;SDS011;28610;51.214;6.962;2023-05-07T15:16:19;19.40;;;10.95;;
42972;SDS011;28610;51.214;6.962;2023-05-07T15:19:05;20.17;;;11.75;;
42972;SDS011;28610;51.214;6.962;2023-05-07T15:21:50;20.58;;;12.45;;
42972;SDS011;28610;51.214;6.962;2023-05-07T15:24:36;17.52;;;11.98;;
42972;SDS011;28610;51.214;6.962;2023-05-07T15:27:22;19.33;;;11.73;;
42972;SDS011;28610;51.214;6.962;2023-05-07T15:30:08;19.58;;;11.63;;
42972;SDS011;28610;51.214;6.962;2023-05-07T15:32:55;19.52;;;11.23;;
42972;SDS011;28610;51.214;6.962;2023-05-07T15:35:41;21.63;;;12.82;;
42972;SDS011;28610;51.214;6.962;2023-05-07T15:38:26;17.25;;;11.70;;
42972;SDS011;28610;51.214;6.962;2023-05-07T15:41:12;16.23;;;10.98;;
42972;SDS011;28610;51.214;6.962;2023-05-07T15:43:58;16.35;;;10.52;;
42972;SDS011;28610;51.214;6.962;2023-05-07T15:46:44;16.58;;;9.35;;
42972;SDS011;28610;51.214;6.962;2023-05-07T15:49:30;17.48;;;10.20;;
42972;SDS011;28610;51.214;6.962;2023-05-07T15:52:17;15.45;;;9.75;;
42972;SDS011;28610;51.214;6.962;2023-05-07T15:55:04;16.77;;;9.35;;
42972;SDS011;28610;51.214;6.962;2023-05-07T15:57:50;14.55;;;9.38;;
42972;SDS011;28610;51.214;6.962;2023-05-07T16:00:37;15.00;;;9.52;;
42972;SDS011;28610;51.214;6.962;2023-05-07T16:03:25;15.40;;;9.18;;
42972;SDS011;28610;51.214;6.962;2023-05-07T16:06:12;16.70;;;9.25;;
42972;SDS011;28610;51.214;6.962;2023-05-07T16:08:58;14.95;;;8.55;;
42972;SDS011;28610;51.214;6.962;2023-05-07T16:11:43;14.00;;;9.15;;
42972;SDS011;28610;51.214;6.962;2023-05-07T16:14:29;12.68;;;8.00;;
42972;SDS011;28610;51.214;6.962;2023-05-07T16:17:15;14.88;;;8.80;;
42972;SDS011;28610;51.214;6.962;2023-05-07T16:20:01;15.48;;;8.25;;
42972;SDS011;28610;51.214;6.962;2023-05-07T16:22:50;12.20;;;8.30;;
42972;SDS011;28610;51.214;6.962;2023-05-07T16:25:35;12.90;;;8.25;;
42972;SDS011;28610;51.214;6.962;2023-05-07T16:28:21;14.73;;;8.10;;
42972;SDS011;28610;51.214;6.962;2023-05-07T16:31:07;12.05;;;7.60;;
42972;SDS011;28610;51.214;6.962;2023-05-07T16:33:53;10.85;;;6.85;;
42972;SDS011;28610;51.214;6.962;2023-05-07T16:36:39;11.38;;;6.68;;
42972;SDS011;28610;51.214;6.962;2023-05-07T16:39:26;11.13;;;6.95;;
42972;SDS011;28610;51.214;6.962;2023-05-07T16:42:11;11.77;;;6.45;;
42972;SDS011;28610;51.214;6.962;2023-05-07T16:44:57;14.43;;;6.80;;